Time;durP1;ratioP1;P1;durP2;ratioP2;P2;SDS_P1;SDS_P2;PMS_P1;PMS_P2;Temp;Humidity;BMP_temperature;BMP_pressure;BME280_temperature;BME280_humidity;BME280_pressure;Samples;Min_cycle;Max_cycle;Signal;HPM_P1;HPM_P2
2021/03/25 00:01:55;;;;;;;19.25;11.15;;;;;;;-1.27;58.18;100769.02;1806069;77;21183;-72
2021/03/25 00:04:24;;;;;;;21.02;11.97;;;;;;;-1.27;58.22;100768.52;1804548;77;21171;-74
2021/03/25 00:06:55;;;;;;;22.55;11.93;;;;;;;-1.27;58.20;100763.27;1802714;79;21175;-78
2021/03/25 00:09:29;;;;;;;26.75;12.63;;;;;;;-1.28;58.28;100760.34;1792077;78;22343;-77
2021/03/25 00:11:58;;;;;;;19.87;12.10;;;;;;;-1.28;58.32;100759.03;1806201;77;21587;-76
2021/03/25 00:14:28;;;;;;;24.72;12.10;;;;;;;-1.28;58.45;100760.84;1805470;77;21179;-78
2021/03/25 00:16:56;;;;;;;22.45;11.73;;;;;;;-1.28;58.40;100759.03;1804416;79;21139;-73
2021/03/25 00:19:25;;;;;;;21.37;11.57;;;;;;;-1.26;58.35;100757.53;1803130;77;21182;-74
2021/03/25 00:21:54;;;;;;;20.77;11.93;;;;;;;-1.24;58.39;100755.06;1801245;79;21321;-73
2021/03/25 00:24:22;;;;;;;21.30;11.40;;;;;;;-1.20;58.33;100761.58;1798819;77;21215;-73
2021/03/25 00:26:49;;;;;;;26.90;14.05;;;;;;;-1.20;58.28;100756.34;1790715;77;21572;-73
2021/03/25 00:29:17;;;;;;;24.45;12.35;;;;;;;-1.20;58.33;100760.27;1798303;77;21182;-74
2021/03/25 00:31:47;;;;;;;25.95;14.28;;;;;;;-1.19;58.33;100761.08;1800282;78;21198;-73
2021/03/25 00:34:16;;;;;;;24.87;13.08;;;;;;;-1.21;58.36;100763.08;1799805;77;22696;-72
2021/03/25 00:36:44;;;;;;;25.12;13.10;;;;;;;-1.21;58.28;100758.65;1795866;79;21175;-72
2021/03/25 00:39:12;;;;;;;27.67;14.05;;;;;;;-1.22;58.21;100761.43;1795829;77;21187;-72
2021/03/25 00:41:41;;;;;;;25.08;13.50;;;;;;;-1.23;58.22;100752.75;1803565;77;21163;-71
2021/03/25 00:44:10;;;;;;;29.00;14.60;;;;;;;-1.22;58.16;100759.65;1804971;77;21683;-72
2021/03/25 00:46:38;;;;;;;21.05;11.05;;;;;;;-1.22;58.23;100758.34;1806994;79;21352;-71
2021/03/25 00:49:06;;;;;;;24.02;11.88;;;;;;;-1.21;58.17;100754.72;1800638;77;21737;-72
2021/03/25 00:51:36;;;;;;;21.82;12.50;;;;;;;-1.22;58.17;100758.34;1805827;77;21675;-73
2021/03/25 00:54:05;;;;;;;22.07;11.63;;;;;;;-1.22;58.13;100760.12;1807198;77;21183;-73
2021/03/25 00:56:33;;;;;;;22.17;11.18;;;;;;;-1.23;58.14;100756.69;1797780;79;21439;-72
2021/03/25 00:59:02;;;;;;;23.45;12.80;;;;;;;-1.23;58.12;100756.69;1800980;77;21217;-73
2021/03/25 01:01:31;;;;;;;22.65;13.18;;;;;;;-1.22;58.18;100753.56;1743249;80;21218;-73
2021/03/25 01:03:59;;;;;;;19.82;11.43;;;;;;;-1.23;58.13;100746.70;1761334;79;21220;-72
2021/03/25 01:06:27;;;;;;;21.57;11.80;;;;;;;-1.21;58.11;100751.28;1759903;79;21207;-72
2021/03/25 01:08:55;;;;;;;19.10;11.70;;;;;;;-1.23;58.09;100755.87;1761996;79;21709;-71
2021/03/25 01:11:27;;;;;;;20.60;11.28;;;;;;;-1.24;58.14;100748.52;1757703;79;21210;-73
2021/03/25 01:14:00;;;;;;;19.90;11.35;;;;;;;-1.25;58.15;100748.20;1754766;81;21227;-72
2021/03/25 01:16:34;;;;;;;18.10;10.00;;;;;;;-1.26;58.19;100753.60;1764025;79;21214;-74
2021/03/25 01:19:08;;;;;;;19.70;10.48;;;;;;;-1.27;58.18;100760.66;1746507;81;21175;-73
2021/03/25 01:21:36;;;;;;;20.08;10.53;;;;;;;-1.28;58.20;100761.66;1737325;81;21190;-72
2021/03/25 01:24:06;;;;;;;22.40;10.93;;;;;;;-1.29;58.14;100760.00;1734118;81;21619;-73
2021/03/25 01:26:36;;;;;;;17.52;10.98;;;;;;;-1.29;58.20;100753.95;1754573;79;21735;-72
2021/03/25 01:29:06;;;;;;;18.50;11.10;;;;;;;-1.32;58.24;100756.91;1753866;81;21188;-75
2021/03/25 01:31:35;;;;;;;20.40;10.45;;;;;;;-1.34;58.31;100751.86;1746369;79;21191;-74
2021/03/25 01:34:05;;;;;;;22.17;11.97;;;;;;;-1.36;58.45;100760.38;1762685;79;22037;-74
2021/03/25 01:36:35;;;;;;;18.98;10.95;;;;;;;-1.40;58.62;100757.80;1758189;79;21203;-73
2021/03/25 01:39:05;;;;;;;23.05;12.33;;;;;;;-1.42;58.71;100759.76;1758911;81;21398;-75
2021/03/25 01:41:37;;;;;;;23.70;11.63;;;;;;;-1.46;58.83;100754.55;1757452;79;21290;-74
2021/03/25 01:44:05;;;;;;;21.73;11.88;;;;;;;-1.49;58.91;100761.45;1755926;79;21184;-73
2021/03/25 01:46:38;;;;;;;21.20;10.65;;;;;;;-1.52;59.00;100759.17;1761977;79;21208;-74
2021/03/25 01:49:12;;;;;;;18.52;10.15;;;;;;;-1.58;59.13;100760.70;1764359;79;21176;-73
2021/03/25 01:52:28;;;;;;;18.20;10.38;;;;;;;-1.62;59.30;100755.95;1741596;80;21234;-73
2021/03/25 01:55:04;;;;;;;18.37;9.63;;;;;;;-1.66;59.38;100758.92;1768795;79;22234;-71
2021/03/25 01:58:05;;;;;;;16.85;9.38;;;;;;;-1.73;59.69;100760.59;1723826;80;21210;-73
2021/03/25 02:01:00;;;;;;;19.30;11.00;;;;;;;-1.77;59.87;100762.43;1760077;79;21190;-74
2021/03/25 02:03:55;;;;;;;20.08;10.28;;;;;;;-1.82;60.02;100765.54;1717476;79;21198;-75
2021/03/25 02:06:57;;;;;;;20.88;10.88;;;;;;;-1.89;60.26;100762.79;1757749;79;21188;-77
2021/03/25 02:09:48;;;;;;;22.58;12.40;;;;;;;-1.89;60.26;100762.79;1734420;81;21611;-77
2021/03/25 02:13:07;;;;;;;18.02;9.88;;;;;;;-1.91;60.35;100759.55;1763048;79;21175;-77
2021/03/25 02:15:45;;;;;;;20.20;11.10;;;;;;;-1.95;60.41;100756.92;1759274;79;21738;-76
2021/03/25 02:18:23;;;;;;;18.12;10.13;;;;;;;-2.00;60.51;100757.94;1765154;79;21377;-76
2021/03/25 02:21:25;;;;;;;18.82;10.68;;;;;;;-2.01;60.78;100760.71;1767787;79;21207;-76
2021/03/25 02:24:28;;;;;;;19.07;10.25;;;;;;;-2.01;60.78;100760.71;1762334;79;21259;-76
2021/03/25 02:27:29;;;;;;;17.12;9.25;;;;;;;-2.06;60.91;100755.19;1758407;79;21501;-76
2021/03/25 02:30:04;;;;;;;17.73;9.50;;;;;;;-2.13;61.10;100748.50;1762349;79;21202;-75
2021/03/25 02:32:46;;;;;;;15.45;9.03;;;;;;;-2.15;61.29;100756.50;1753250;79;21216;-75
2021/03/25 02:35:34;;;;;;;16.77;9.13;;;;;;;-2.19;61.48;100748.67;1764701;81;21669;-75
2021/03/25 02:38:10;;;;;;;17.62;10.18;;;;;;;-2.22;61.69;100745.09;1764051;79;21481;-76
2021/03/25 02:40:44;;;;;;;17.50;9.70;;;;;;;-2.25;61.85;100750.66;1738496;81;21599;-76
2021/03/25 02:43:34;;;;;;;14.93;9.25;;;;;;;-2.26;61.96;100744.30;1724155;81;21212;-77
2021/03/25 02:46:20;;;;;;;16.25;9.10;;;;;;;-2.28;62.07;100748.38;1745269;81;22289;-76
2021/03/25 02:48:52;;;;;;;16.55;9.80;;;;;;;-2.31;62.17;100751.81;1763604;79;21112;-74
2021/03/25 02:51:27;;;;;;;14.60;8.83;;;;;;;-2.35;62.21;100743.49;1734752;81;21223;-75
2021/03/25 02:53:56;;;;;;;14.45;8.20;;;;;;;-2.38;62.19;100745.13;1759651;79;22522;-74
2021/03/25 02:56:42;;;;;;;17.05;8.80;;;;;;;-2.40;62.24;100747.12;1735057;79;21831;-75
2021/03/25 02:59:19;;;;;;;17.37;8.73;;;;;;;-2.41;62.25;100746.77;1760926;79;22181;-74
2021/03/25 03:01:51;;;;;;;18.87;9.53;;;;;;;-2.43;62.29;100744.84;1759127;79;21174;-75
2021/03/25 03:04:24;;;;;;;18.05;9.68;;;;;;;-2.46;62.35;100747.78;1759468;79;21535;-75
2021/03/25 03:07:03;;;;;;;17.55;9.28;;;;;;;-2.49;62.43;100752.84;1760716;79;21234;-74
2021/03/25 03:09:39;;;;;;;16.50;9.23;;;;;;;-2.51;62.43;100754.80;1760175;79;21608;-75
2021/03/25 03:12:24;;;;;;;18.57;9.08;;;;;;;-2.52;62.48;100751.06;1761215;79;21211;-74
2021/03/25 03:14:57;;;;;;;18.02;9.53;;;;;;;-2.53;62.51;100758.09;1760105;79;21238;-74
2021/03/25 03:17:36;;;;;;;18.98;9.55;;;;;;;-2.53;62.58;100754.64;1761372;79;21010;-75
2021/03/25 03:20:31;;;;;;;14.10;8.40;;;;;;;-2.49;62.65;100750.23;1838554;77;22581;-75
2021/03/25 03:23:04;;;;;;;17.32;9.65;;;;;;;-2.56;62.65;100757.12;1762274;78;21294;-75
2021/03/25 03:25:35;;;;;;;15.85;7.90;;;;;;;-2.56;62.67;100753.69;1807280;78;22473;-75
2021/03/25 03:28:08;;;;;;;17.67;9.65;;;;;;;-2.57;62.74;100754.66;1766424;78;21024;-75
2021/03/25 03:30:40;;;;;;;17.05;8.85;;;;;;;-2.61;62.81;100760.70;1819211;78;21622;-75
2021/03/25 03:33:38;;;;;;;17.47;8.93;;;;;;;-2.60;62.81;100765.79;1828857;77;22693;-74
2021/03/25 03:36:11;;;;;;;17.92;9.73;;;;;;;-2.66;62.87;100757.79;1800697;79;21190;-74
2021/03/25 03:38:54;;;;;;;19.25;9.20;;;;;;;-2.68;62.92;100762.36;1781200;79;21260;-74
2021/03/25 03:41:31;;;;;;;16.43;7.63;;;;;;;-2.70;62.96;100758.61;1796200;78;21041;-75
2021/03/25 03:44:16;;;;;;;13.63;8.70;;;;;;;-2.66;63.05;100757.79;1827412;75;22457;-74
2021/03/25 03:46:44;;;;;;;14.90;8.08;;;;;;;-2.74;63.09;100757.29;1832615;76;21110;-76
2021/03/25 03:49:50;;;;;;;12.80;7.25;;;;;;;-2.74;63.13;100757.78;1842458;77;22396;-74
2021/03/25 03:52:32;;;;;;;15.58;8.70;;;;;;;-2.74;63.15;100758.59;1821627;78;21162;-73
2021/03/25 03:55:04;;;;;;;14.65;7.92;;;;;;;-2.75;63.18;100768.73;1809236;77;21273;-73
2021/03/25 03:57:58;;;;;;;14.63;8.38;;;;;;;-2.74;63.27;100763.02;1784985;79;21177;-73
2021/03/25 04:00:50;;;;;;;13.72;7.25;;;;;;;-2.75;63.25;100764.00;1805825;77;21166;-74
2021/03/25 04:03:32;;;;;;;14.45;7.37;;;;;;;-2.74;63.29;100761.21;1802896;78;24874;-72
2021/03/25 04:06:15;;;;;;;12.82;7.10;;;;;;;-2.75;63.34;100759.59;1807032;77;21112;-73
2021/03/25 04:09:13;;;;;;;13.58;7.47;;;;;;;-2.75;63.40;100764.00;1817658;78;21198;-74
2021/03/25 04:12:09;;;;;;;15.07;7.63;;;;;;;-2.69;63.41;100760.73;1805781;77;23071;-73
2021/03/25 04:14:53;;;;;;;14.35;7.62;;;;;;;-2.69;63.41;100768.58;1767572;80;21070;-74
2021/03/25 04:17:32;;;;;;;12.50;6.90;;;;;;;-2.63;63.41;100767.42;1819819;77;22260;-73
2021/03/25 04:20:10;;;;;;;12.95;7.03;;;;;;;-2.66;63.37;100772.17;1800687;79;21131;-74
2021/03/25 04:22:50;;;;;;;14.68;7.80;;;;;;;-2.65;63.40;100773.80;1794171;79;21171;-73
2021/03/25 04:25:31;;;;;;;12.70;8.48;;;;;;;-2.65;63.39;100774.61;1795153;79;21130;-75
2021/03/25 04:28:19;;;;;;;14.18;7.60;;;;;;;-2.58;63.41;100768.72;1792548;79;21052;-73
2021/03/25 04:30:52;;;;;;;15.28;8.38;;;;;;;-2.55;63.31;100770.51;1808094;79;21215;-74
2021/03/25 04:33:23;;;;;;;16.35;8.80;;;;;;;-2.52;63.23;100764.14;1779152;79;21158;-73
2021/03/25 04:35:52;;;;;;;15.25;7.85;;;;;;;-2.47;63.13;100771.81;1807443;79;21377;-74
2021/03/25 04:38:27;;;;;;;15.68;7.92;;;;;;;-2.39;62.77;100760.52;1799753;79;21151;-73
2021/03/25 04:40:56;;;;;;;16.20;9.55;;;;;;;-2.39;62.77;100760.52;1794413;79;21081;-74
2021/03/25 04:43:27;;;;;;;14.87;8.43;;;;;;;-2.33;62.86;100766.39;1800363;79;21075;-72
2021/03/25 04:46:22;;;;;;;15.75;9.43;;;;;;;-2.28;62.75;100765.87;1793428;79;21116;-74
2021/03/25 04:48:50;;;;;;;16.45;10.03;;;;;;;-2.20;62.66;100773.22;1807294;79;21458;-74
2021/03/25 04:51:22;;;;;;;17.57;9.35;;;;;;;-2.20;62.66;100773.22;1791022;79;21088;-73
2021/03/25 04:53:53;;;;;;;16.55;9.05;;;;;;;-2.13;62.47;100777.29;1806048;77;21167;-74
2021/03/25 04:56:22;;;;;;;18.17;9.38;;;;;;;-2.07;62.43;100768.77;1796997;79;21142;-74
2021/03/25 04:58:57;;;;;;;15.48;9.20;;;;;;;-2.00;62.36;100786.73;1794132;79;21222;-74
2021/03/25 05:01:30;;;;;;;15.95;8.75;;;;;;;-1.94;62.25;100783.91;1793370;79;21477;-73
2021/03/25 05:04:03;;;;;;;21.42;10.13;;;;;;;-1.93;62.14;100779.83;1807495;79;21063;-74
2021/03/25 05:06:53;;;;;;;17.52;9.50;;;;;;;-1.85;62.10;100790.75;1800721;79;21123;-73
2021/03/25 05:09:23;;;;;;;18.67;10.40;;;;;;;-1.79;62.03;100794.00;1813727;79;21265;-73
2021/03/25 05:11:51;;;;;;;21.00;11.18;;;;;;;-1.70;61.93;100792.17;1805939;79;21100;-73
2021/03/25 05:14:26;;;;;;;19.50;9.68;;;;;;;-1.62;61.86;100773.79;1785072;79;21208;-74
2021/03/25 05:17:14;;;;;;;20.17;10.70;;;;;;;-1.50;61.41;100793.37;1799458;79;21123;-74
2021/03/25 05:20:20;;;;;;;19.02;9.23;;;;;;;-1.39;61.24;100796.59;1794558;79;21653;-72
2021/03/25 05:23:03;;;;;;;20.70;10.05;;;;;;;-1.25;60.46;100788.83;1798706;79;21472;-73
2021/03/25 05:25:52;;;;;;;18.07;9.10;;;;;;;-1.25;60.46;100788.83;1790584;79;21201;-74
2021/03/25 05:28:41;;;;;;;15.50;8.20;;;;;;;-1.13;60.45;100804.13;1805750;79;21582;-73
2021/03/25 05:31:12;;;;;;;14.45;8.25;;;;;;;-1.05;60.32;100802.28;1790194;79;21161;-73
2021/03/25 05:33:40;;;;;;;14.68;8.20;;;;;;;-0.93;60.16;100812.35;1786313;80;21223;-72
2021/03/25 05:36:11;;;;;;;16.10;8.38;;;;;;;-0.85;59.69;100812.30;1799120;78;21741;-74
2021/03/25 05:38:39;;;;;;;14.73;7.62;;;;;;;-0.76;59.57;100812.06;1796294;78;21544;-74
2021/03/25 05:41:25;;;;;;;16.30;7.17;;;;;;;-0.67;58.90;100817.23;1814423;78;21365;-75
2021/03/25 05:44:08;;;;;;;11.40;6.12;;;;;;;-0.61;58.39;100815.22;1816288;78;21198;-74
2021/03/25 05:47:03;;;;;;;12.47;7.45;;;;;;;-0.53;58.28;100818.59;1799712;78;21571;-74
2021/03/25 05:49:58;;;;;;;15.93;7.70;;;;;;;-0.40;57.82;100815.84;1815900;78;21175;-73
2021/03/25 05:52:50;;;;;;;14.63;7.80;;;;;;;-0.33;57.19;100808.41;1819581;78;21097;-74
2021/03/25 05:55:39;;;;;;;12.98;7.17;;;;;;;-0.24;56.96;100811.74;1807552;79;21335;-73
2021/03/25 05:58:22;;;;;;;14.07;7.92;;;;;;;-0.13;56.62;100811.31;1797677;79;21179;-74
2021/03/25 06:01:26;;;;;;;12.47;6.97;;;;;;;-0.04;56.24;100811.52;1790873;79;21179;-74
2021/03/25 06:04:32;;;;;;;14.68;7.37;;;;;;;0.03;56.01;100808.98;1792795;79;21131;-74
2021/03/25 06:07:17;;;;;;;12.68;7.62;;;;;;;0.13;56.00;100812.18;1790226;79;21206;-74
2021/03/25 06:10:18;;;;;;;11.85;6.25;;;;;;;0.25;55.32;100810.39;1804876;79;21143;-74
2021/03/25 06:13:08;;;;;;;12.73;6.95;;;;;;;0.37;55.22;100808.94;1795935;79;21131;-75
2021/03/25 06:16:09;;;;;;;13.88;6.45;;;;;;;0.49;54.48;100802.69;1757895;80;21166;-74
2021/03/25 06:19:13;;;;;;;10.63;6.33;;;;;;;0.61;53.94;100803.84;1794632;79;21155;-74
2021/03/25 06:22:13;;;;;;;12.15;6.17;;;;;;;0.76;53.51;100800.69;1795214;79;21190;-74
2021/03/25 06:25:06;;;;;;;11.38;6.28;;;;;;;0.93;52.95;100798.63;1799590;77;21379;-73
2021/03/25 06:27:45;;;;;;;9.90;5.85;;;;;;;1.08;52.46;100809.88;1794540;79;21220;-75
2021/03/25 06:30:18;;;;;;;9.63;5.22;;;;;;;1.20;51.74;100806.77;1791541;79;21178;-74
2021/03/25 06:32:57;;;;;;;10.28;5.30;;;;;;;1.32;50.64;100796.86;1794316;79;21190;-73
2021/03/25 06:35:42;;;;;;;8.85;5.25;;;;;;;1.42;49.95;100787.32;1802102;79;21095;-74
2021/03/25 06:38:28;;;;;;;9.95;5.10;;;;;;;1.55;49.65;100794.00;1771017;79;21610;-74
2021/03/25 06:41:16;;;;;;;8.83;4.53;;;;;;;1.69;49.00;100788.82;1804909;79;21179;-72
2021/03/25 06:44:04;;;;;;;8.85;4.70;;;;;;;1.83;48.44;100783.94;1793360;79;21202;-74
2021/03/25 06:46:39;;;;;;;12.00;5.67;;;;;;;1.97;47.92;100789.58;1786391;79;21206;-74
2021/03/25 06:49:25;;;;;;;9.68;4.95;;;;;;;2.11;47.44;100787.85;1801181;79;21945;-72
2021/03/25 06:51:53;;;;;;;7.72;4.60;;;;;;;2.24;47.33;100781.83;1800186;78;22315;-73
2021/03/25 06:54:24;;;;;;;7.90;4.35;;;;;;;2.38;46.79;100775.59;1749871;79;21155;-76
2021/03/25 06:56:56;;;;;;;8.50;4.75;;;;;;;2.49;46.57;100774.20;1793174;79;21192;-74
2021/03/25 06:59:33;;;;;;;7.60;3.80;;;;;;;2.58;46.06;100779.09;1795527;77;21178;-74
2021/03/25 07:02:13;;;;;;;8.23;4.53;;;;;;;2.67;45.13;100775.78;1793983;79;21150;-73
2021/03/25 07:04:47;;;;;;;8.35;5.08;;;;;;;2.75;45.64;100773.45;1787166;79;21571;-74
2021/03/25 07:07:26;;;;;;;11.30;5.10;;;;;;;2.85;45.40;100777.83;1801333;79;21262;-74
2021/03/25 07:09:57;;;;;;;9.45;5.17;;;;;;;3.05;44.22;100772.06;1794997;79;21554;-74
2021/03/25 07:12:38;;;;;;;11.85;6.08;;;;;;;3.05;44.22;100772.06;1809090;79;21151;-74
2021/03/25 07:15:07;;;;;;;14.47;5.78;;;;;;;3.14;44.58;100781.93;1795446;79;21562;-75
2021/03/25 07:17:39;;;;;;;13.15;5.87;;;;;;;3.25;44.43;100781.83;1799945;79;21364;-74
2021/03/25 07:20:25;;;;;;;9.43;5.25;;;;;;;3.35;44.67;100773.50;1800604;77;21175;-73
2021/03/25 07:23:08;;;;;;;8.53;3.62;;;;;;;3.48;43.77;100786.18;1801887;79;21190;-75
2021/03/25 07:25:46;;;;;;;6.83;3.50;;;;;;;3.56;41.44;100767.20;1788434;79;22173;-75
2021/03/25 07:28:20;;;;;;;11.57;3.45;;;;;;;3.63;39.43;100768.81;1791672;79;21180;-74
2021/03/25 07:30:57;;;;;;;5.95;3.00;;;;;;;3.75;39.73;100767.65;1801279;79;21230;-75
2021/03/25 07:33:28;;;;;;;5.08;2.55;;;;;;;3.85;38.74;100768.55;1800877;79;21668;-73
2021/03/25 07:36:07;;;;;;;7.78;3.22;;;;;;;3.93;37.88;100763.05;1800079;79;21127;-73
2021/03/25 07:38:38;;;;;;;6.62;3.25;;;;;;;3.99;38.27;100767.00;1799926;79;21199;-73
2021/03/25 07:41:31;;;;;;;5.55;2.95;;;;;;;4.10;37.93;100766.05;1793799;77;21182;-73
2021/03/25 07:44:31;;;;;;;7.70;3.00;;;;;;;4.16;37.32;100767.86;1786202;79;21361;-74
2021/03/25 07:47:03;;;;;;;5.80;2.85;;;;;;;4.22;37.25;100766.51;1801804;77;21566;-74
2021/03/25 07:49:37;;;;;;;5.55;3.25;;;;;;;4.26;36.58;100762.93;1799190;77;21215;-75
2021/03/25 07:52:10;;;;;;;5.72;2.95;;;;;;;4.29;37.18;100761.19;1800698;79;21451;-75
2021/03/25 07:54:41;;;;;;;6.85;3.20;;;;;;;4.35;37.11;100752.42;1789669;79;21147;-74
2021/03/25 07:57:19;;;;;;;5.90;3.10;;;;;;;4.42;36.75;100751.87;1788772;79;21263;-74
2021/03/25 07:59:53;;;;;;;4.97;2.72;;;;;;;4.50;36.35;100757.93;1797940;79;21180;-75
2021/03/25 08:02:33;;;;;;;4.45;2.30;;;;;;;4.60;35.57;100760.92;1796186;77;21182;-75
2021/03/25 08:05:30;;;;;;;4.12;2.37;;;;;;;4.65;34.52;100765.08;1802837;79;21559;-73
2021/03/25 08:08:04;;;;;;;5.72;2.40;;;;;;;4.65;34.79;100754.50;1802844;79;21543;-76
2021/03/25 08:10:42;;;;;;;4.47;2.77;;;;;;;4.72;33.52;100752.62;1793438;79;21653;-74
2021/03/25 08:13:21;;;;;;;5.40;2.40;;;;;;;4.78;34.65;100757.06;1804974;79;21183;-75
2021/03/25 08:16:06;;;;;;;3.02;1.80;;;;;;;4.93;34.49;100758.87;1804245;79;21091;-74
2021/03/25 08:19:18;;;;;;;3.85;1.67;;;;;;;5.07;32.60;100750.34;1806949;79;21737;-74
2021/03/25 08:21:52;;;;;;;4.65;2.00;;;;;;;5.13;31.98;100759.23;1799757;79;21198;-74
2021/03/25 08:24:45;;;;;;;4.25;2.00;;;;;;;5.21;31.84;100768.77;1787467;79;21226;-74
2021/03/25 08:27:35;;;;;;;4.53;2.35;;;;;;;5.24;31.29;100759.08;1797672;79;21091;-74
2021/03/25 08:30:26;;;;;;;4.70;2.20;;;;;;;5.18;32.27;100764.72;1800180;79;21678;-74
2021/03/25 08:33:17;;;;;;;4.92;2.33;;;;;;;5.18;32.22;100762.87;1781668;78;21175;-75
2021/03/25 08:36:04;;;;;;;4.43;2.10;;;;;;;5.21;32.58;100755.02;1842135;76;22967;-73
2021/03/25 08:39:01;;;;;;;4.30;2.27;;;;;;;5.09;32.36;100763.35;1805015;77;22060;-75
2021/03/25 08:41:48;;;;;;;4.50;2.17;;;;;;;5.05;32.83;100766.14;1805426;77;22393;-74
2021/03/25 08:44:27;;;;;;;4.17;2.22;;;;;;;5.06;32.64;100762.45;1797821;78;21176;-74
2021/03/25 08:47:09;;;;;;;4.45;2.35;;;;;;;5.09;32.31;100755.41;1802645;78;21223;-75
2021/03/25 08:49:59;;;;;;;;;;;;;;;5.09;32.93;100763.35;1745383;82;21180;-75
2021/03/25 08:52:29;;;;;;;3.33;2.00;;;;;;;5.13;32.56;100760.08;1769336;80;20314;-75
2021/03/25 08:55:22;;;;;;;4.33;2.12;;;;;;;5.17;32.47;100752.52;1744184;80;21260;-75
2021/03/25 08:58:04;;;;;;;4.37;2.30;;;;;;;5.24;32.88;100749.80;1739505;79;21211;-76
2021/03/25 09:00:35;;;;;;;6.62;2.37;;;;;;;5.26;33.11;100749.05;1743528;81;21216;-75
2021/03/25 09:03:21;;;;;;;6.20;3.02;;;;;;;5.36;32.84;100745.40;1740498;80;21172;-76
2021/03/25 09:06:14;;;;;;;6.22;3.27;;;;;;;5.38;32.84;100745.48;1776580;78;21505;-76
2021/03/25 09:08:43;;;;;;;4.30;2.30;;;;;;;5.46;33.54;100747.55;1794739;78;22341;-75
2021/03/25 09:11:14;;;;;;;6.37;2.70;;;;;;;5.52;33.26;100743.52;1791665;78;21211;-76
2021/03/25 09:13:53;;;;;;;4.50;2.17;;;;;;;5.56;34.00;100743.39;1792563;78;21203;-74
2021/03/25 09:16:32;;;;;;;4.92;2.52;;;;;;;5.66;33.38;100744.22;1807692;78;21104;-74
2021/03/25 09:19:04;;;;;;;4.20;2.47;;;;;;;5.81;32.14;100745.17;1801148;78;21208;-75
2021/03/25 09:21:32;;;;;;;5.22;2.40;;;;;;;5.83;32.85;100734.65;1745802;80;21213;-75
2021/03/25 09:24:09;;;;;;;5.87;2.30;;;;;;;5.91;32.43;100735.37;1782275;78;21172;-75
2021/03/25 09:27:01;;;;;;;4.87;2.40;;;;;;;5.93;32.13;100730.19;1752417;81;21173;-75
2021/03/25 09:29:37;;;;;;;5.80;2.22;;;;;;;5.95;32.08;100741.87;1820276;78;21156;-74
2021/03/25 09:32:38;;;;;;;5.87;2.60;;;;;;;6.03;31.70;100739.75;1782677;77;21160;-74
2021/03/25 09:35:39;;;;;;;4.70;2.35;;;;;;;6.12;31.27;100734.97;1779669;78;22554;-76
2021/03/25 09:38:11;;;;;;;5.20;2.60;;;;;;;6.19;31.09;100738.34;1798702;78;21183;-75
2021/03/25 09:40:44;;;;;;;6.20;2.75;;;;;;;6.23;31.58;100734.20;1805528;77;21187;-74
2021/03/25 09:43:28;;;;;;;6.67;2.47;;;;;;;6.32;31.78;100740.83;1804683;77;21172;-74
2021/03/25 09:45:57;;;;;;;5.22;2.83;;;;;;;6.34;31.50;100740.59;1743154;80;21562;-74
2021/03/25 09:48:27;;;;;;;5.60;2.90;;;;;;;6.40;31.38;100733.58;1727669;82;21412;-74
2021/03/25 09:51:07;;;;;;;5.12;2.58;;;;;;;6.44;31.82;100736.88;1745809;80;21154;-75
2021/03/25 09:53:51;;;;;;;5.17;2.70;;;;;;;6.59;30.82;100743.12;1810867;77;22112;-74
2021/03/25 09:56:32;;;;;;;5.10;3.40;;;;;;;6.55;30.93;100738.78;1770714;78;21187;-74
2021/03/25 09:59:02;;;;;;;5.28;2.70;;;;;;;6.54;31.39;100730.51;1788979;77;21601;-73
2021/03/25 10:01:55;;;;;;;4.95;2.75;;;;;;;6.64;30.31;100729.95;1791009;79;21144;-76
2021/03/25 10:04:35;;;;;;;5.75;3.10;;;;;;;6.66;29.83;100735.06;1798535;77;21150;-75
2021/03/25 10:07:14;;;;;;;4.85;2.40;;;;;;;6.71;30.45;100732.03;1790948;77;21191;-74
2021/03/25 10:10:25;;;;;;;5.87;3.00;;;;;;;6.84;31.69;100727.01;1805385;77;21153;-75
2021/03/25 10:13:07;;;;;;;6.08;3.55;;;;;;;6.99;31.13;100726.59;1772271;79;21808;-75
2021/03/25 10:16:00;;;;;;;10.45;5.75;;;;;;;7.14;31.25;100725.64;1768278;79;21193;-75
2021/03/25 10:18:37;;;;;;;6.25;3.22;;;;;;;7.33;30.87;100717.54;1788204;77;21173;-75
2021/03/25 10:21:14;;;;;;;5.40;2.80;;;;;;;7.47;29.88;100718.94;1793316;77;21695;-75
2021/03/25 10:23:56;;;;;;;6.60;3.08;;;;;;;7.57;28.72;100724.48;1789642;77;21212;-75
2021/03/25 10:26:39;;;;;;;4.72;2.30;;;;;;;7.63;29.28;100718.73;1751147;80;22392;-74
2021/03/25 10:29:21;;;;;;;6.30;2.50;;;;;;;7.63;27.49;100711.56;1764364;79;21199;-74
2021/03/25 10:31:58;;;;;;;5.08;2.22;;;;;;;7.62;28.52;100710.47;1777239;79;21183;-75
2021/03/25 10:34:34;;;;;;;5.47;2.65;;;;;;;7.61;28.71;100703.03;1803457;77;21188;-75
2021/03/25 10:37:33;;;;;;;4.90;2.75;;;;;;;7.66;29.17;100700.98;1797149;77;21625;-75
2021/03/25 10:40:21;;;;;;;5.08;2.40;;;;;;;7.68;29.42;100702.38;1795556;77;22324;-74
2021/03/25 10:43:05;;;;;;;3.98;2.20;;;;;;;7.73;28.38;100702.98;1788277;79;21196;-74
2021/03/25 10:45:50;;;;;;;4.75;2.10;;;;;;;7.64;27.64;100715.85;1795047;78;21184;-74
2021/03/25 10:48:24;;;;;;;4.08;1.60;;;;;;;7.55;27.67;100707.14;1798761;77;21173;-73
2021/03/25 10:51:04;;;;;;;3.72;1.82;;;;;;;7.49;25.98;100702.22;1790782;79;21116;-73
2021/03/25 10:53:41;;;;;;;3.95;2.20;;;;;;;7.44;26.43;100698.95;1796126;77;21743;-74
2021/03/25 10:56:25;;;;;;;3.77;2.05;;;;;;;7.47;27.43;100701.66;1791483;77;21167;-75
2021/03/25 10:59:02;;;;;;;4.60;2.10;;;;;;;7.52;26.53;100701.77;1796062;77;21136;-74
2021/03/25 11:01:32;;;;;;;4.60;2.50;;;;;;;7.53;26.94;100712.67;1791382;77;21259;-75
2021/03/25 11:04:00;;;;;;;3.70;2.10;;;;;;;7.55;27.74;100697.31;1799248;77;21136;-75
2021/03/25 11:06:34;;;;;;;5.42;2.70;;;;;;;7.66;26.85;100697.80;1790524;77;21400;-76
2021/03/25 11:09:23;;;;;;;6.00;3.02;;;;;;;7.72;27.69;100692.88;1795741;79;21156;-73
2021/03/25 11:11:59;;;;;;;5.45;3.17;;;;;;;7.81;28.72;100694.66;1790508;79;21211;-74
2021/03/25 11:14:44;;;;;;;5.20;2.40;;;;;;;7.82;28.08;100696.80;1795753;79;21576;-73
2021/03/25 11:17:30;;;;;;;5.05;2.62;;;;;;;7.77;27.67;100696.19;1788372;77;21204;-74
2021/03/25 11:20:00;;;;;;;6.60;2.62;;;;;;;7.78;27.02;100688.48;1799290;77;21426;-74
2021/03/25 11:22:31;;;;;;;4.55;2.35;;;;;;;7.84;28.79;100688.08;1789493;77;21200;-73
2021/03/25 11:25:10;;;;;;;4.75;2.52;;;;;;;7.99;28.01;100691.85;1799583;79;21164;-74
2021/03/25 11:27:38;;;;;;;4.78;2.67;;;;;;;8.16;28.29;100682.59;1770113;77;21137;-75
2021/03/25 11:30:20;;;;;;;5.10;2.83;;;;;;;8.32;28.63;100676.20;1793381;77;21168;-75
2021/03/25 11:32:49;;;;;;;5.00;3.00;;;;;;;8.53;27.77;100684.87;1763851;79;21347;-73
2021/03/25 11:35:42;;;;;;;5.25;2.58;;;;;;;8.68;27.49;100686.45;1803338;77;21671;-74
2021/03/25 11:38:26;;;;;;;4.12;2.20;;;;;;;8.67;27.41;100690.16;1790174;77;21262;-74
2021/03/25 11:41:02;;;;;;;5.72;3.30;;;;;;;8.63;26.26;100667.73;1799215;77;21648;-73
2021/03/25 11:43:56;;;;;;;5.42;2.80;;;;;;;8.60;27.42;100680.20;1780779;80;21116;-74
2021/03/25 11:46:32;;;;;;;4.72;2.45;;;;;;;8.60;26.61;100670.08;1805853;79;22232;-75
2021/03/25 11:49:13;;;;;;;5.42;2.52;;;;;;;8.53;26.49;100669.43;1806926;77;21204;-74
2021/03/25 11:51:46;;;;;;;5.62;2.55;;;;;;;8.45;26.56;100666.61;1807243;77;21090;-74
2021/03/25 11:54:50;;;;;;;3.83;2.50;;;;;;;8.45;26.89;100661.30;1804744;79;21620;-73
2021/03/25 11:57:31;;;;;;;4.62;2.52;;;;;;;8.51;27.02;100660.87;1730242;81;21232;-72
2021/03/25 12:00:13;;;;;;;4.67;2.50;;;;;;;8.60;27.02;100663.42;1770110;80;21419;-73
2021/03/25 12:02:43;;;;;;;8.05;3.70;;;;;;;8.79;26.92;100658.14;1769703;80;21100;-75
2021/03/25 12:05:32;;;;;;;5.20;2.70;;;;;;;8.83;25.97;100667.79;1753719;80;21165;-73
2021/03/25 12:08:15;;;;;;;4.87;2.42;;;;;;;8.75;25.79;100660.98;1746978;81;21131;-75
2021/03/25 12:10:45;;;;;;;4.22;2.40;;;;;;;8.68;25.31;100651.02;1753900;80;21191;-75
2021/03/25 12:13:13;;;;;;;4.80;3.00;;;;;;;8.69;25.35;100660.13;1778344;80;21205;-74
2021/03/25 12:15:45;;;;;;;6.37;2.85;;;;;;;8.66;25.67;100653.95;1754244;80;21223;-73
2021/03/25 12:18:21;;;;;;;5.47;2.20;;;;;;;8.64;26.59;100648.05;1752169;81;21193;-74
2021/03/25 12:20:50;;;;;;;4.55;2.50;;;;;;;8.73;26.96;100652.45;1755403;80;21147;-73
2021/03/25 12:23:26;;;;;;;4.33;2.58;;;;;;;8.83;26.61;100644.62;1767913;80;21633;-72